East Haddonfield, New Jersey
Current Conditions -  °F | °C
As of 7:21 AM on Tuesday 27 Jan 2015 (Local Time) from KPHL Reporting Station
Light Snow Light Snow  
Wind Chill: 16°   Ceiling: 2900
Heat Index: 27°   Visibility: 2.5mi
Dew Point: 22°   Wind: 14mph
Humidity: 81%   Direction: 330°NNW
Pressure: 29.74"   Gusts: NA
Location:  39.8934°N, 75.0387°W
Report Text: KPHL 271221Z 33012KT 2 1/2SM -SN BKN029 OVC044 M03/M06 A2974 RMK AO2 P0000 T10281056
Loading
Personal Weather Stations






























Interactive Weather Map New forecast layout! Learn more

10-Day Weather Forecast

Advertisements
Track Severe Weather on mobile